Time;durP1;ratioP1;P1;durP2;ratioP2;P2;SDS_P1;SDS_P2;PMS_P1;PMS_P2;Temp;Humidity;BMP_temperature;BMP_pressure;BME280_temperature;BME280_humidity;BME280_pressure;Samples;Min_cycle;Max_cycle;Signal;HPM_P1;HPM_P2
2023/01/28 00:01:08;;;;;;;35.60;17.43;;;1.50;99.90;;;;;;5011376;28;20033;-62
2023/01/28 00:03:34;;;;;;;41.75;19.17;;;1.50;99.90;;;;;;5010173;28;20033;-62
2023/01/28 00:06:04;;;;;;;37.85;18.13;;;1.50;99.90;;;;;;5010005;28;20060;-63
2023/01/28 00:08:30;;;;;;;35.15;18.15;;;1.40;99.90;;;;;;5028360;28;20045;-62
2023/01/28 00:11:01;;;;;;;37.88;18.85;;;1.50;99.90;;;;;;5030485;28;20045;-62
2023/01/28 00:13:28;;;;;;;31.85;16.83;;;1.40;99.90;;;;;;5017576;28;20136;-62
2023/01/28 00:15:55;;;;;;;35.70;17.58;;;1.50;99.90;;;;;;5010487;28;20033;-62
2023/01/28 00:18:21;;;;;;;33.92;17.05;;;1.40;99.90;;;;;;5022134;28;20539;-63
2023/01/28 00:20:59;;;;;;;38.63;19.67;;;1.40;99.90;;;;;;5029614;28;20025;-63
2023/01/28 00:23:30;;;;;;;38.05;17.63;;;1.40;99.90;;;;;;5030208;28;20140;-62
2023/01/28 00:26:00;;;;;;;35.70;17.17;;;1.50;99.90;;;;;;5029747;28;20030;-62
2023/01/28 00:28:26;;;;;;;41.28;18.95;;;1.40;99.90;;;;;;5029957;28;20033;-62
2023/01/28 00:30:52;;;;;;;35.85;17.77;;;1.50;99.90;;;;;;5028009;28;20072;-62
2023/01/28 00:33:18;;;;;;;50.33;17.93;;;1.50;99.90;;;;;;5018756;28;20064;-62
2023/01/28 00:35:44;;;;;;;37.22;19.27;;;1.40;99.90;;;;;;5029596;28;20025;-64
2023/01/28 00:38:10;;;;;;;41.55;19.05;;;1.50;99.90;;;;;;5029294;28;20040;-63
2023/01/28 00:40:35;;;;;;;37.95;18.48;;;1.50;99.90;;;;;;5029314;28;20049;-64
2023/01/28 00:43:01;;;;;;;41.27;19.93;;;1.50;99.90;;;;;;5029615;28;20398;-64
2023/01/28 00:45:27;;;;;;;40.30;19.15;;;1.50;99.90;;;;;;5029756;28;20261;-64
2023/01/28 00:47:53;;;;;;;38.28;17.98;;;1.60;99.90;;;;;;5027436;28;20445;-62
2023/01/28 00:50:20;;;;;;;40.77;19.47;;;1.60;99.90;;;;;;5029216;28;20032;-65
2023/01/28 00:52:46;;;;;;;36.90;19.08;;;1.60;99.90;;;;;;5029391;28;20359;-64
2023/01/28 00:55:11;;;;;;;37.03;18.55;;;1.60;99.90;;;;;;5029418;28;20156;-62
2023/01/28 00:57:37;;;;;;;37.50;19.80;;;1.60;99.90;;;;;;5029324;28;20108;-63
2023/01/28 01:00:04;;;;;;;35.73;17.90;;;1.60;99.90;;;;;;5029117;28;20609;-64
2023/01/28 01:02:30;;;;;;;36.00;17.58;;;1.60;99.90;;;;;;5011019;28;20038;-62
2023/01/28 01:04:58;;;;;;;38.78;19.02;;;1.50;99.90;;;;;;5008585;28;20053;-62
2023/01/28 01:10:21;;;;;;;36.38;18.55;;;1.60;99.90;;;;;;4996368;28;20497;-62
2023/01/28 01:12:48;;;;;;;35.07;16.77;;;1.50;99.90;;;;;;5009191;28;20034;-63
2023/01/28 01:15:15;;;;;;;36.20;18.65;;;1.50;99.90;;;;;;5009081;28;20052;-63
2023/01/28 01:17:43;;;;;;;34.13;18.55;;;1.50;99.90;;;;;;4991635;28;20397;-62
2023/01/28 01:20:15;;;;;;;57.30;20.25;;;1.50;99.90;;;;;;5023853;28;20033;-62
2023/01/28 01:22:41;;;;;;;45.53;21.30;;;1.50;99.90;;;;;;5028782;28;20033;-62
2023/01/28 01:25:07;;;;;;;37.90;19.90;;;1.50;99.90;;;;;;5028990;28;20028;-62
2023/01/28 01:27:34;;;;;;;40.15;20.10;;;1.50;99.90;;;;;;5028658;28;20076;-62
2023/01/28 01:30:00;;;;;;;34.45;17.70;;;1.50;99.90;;;;;;5028458;28;20041;-62
2023/01/28 01:32:31;;;;;;;38.70;18.97;;;1.50;99.90;;;;;;4992244;28;20040;-64
2023/01/28 01:34:57;;;;;;;42.88;19.40;;;1.50;99.90;;;;;;5009138;28;20839;-62
2023/01/28 01:37:23;;;;;;;36.05;19.17;;;1.50;99.90;;;;;;5008586;28;20029;-62
2023/01/28 01:39:48;;;;;;;34.33;18.20;;;1.50;99.90;;;;;;5012196;28;20034;-63
2023/01/28 01:42:14;;;;;;;35.77;18.70;;;1.50;99.90;;;;;;5028644;28;20033;-63
2023/01/28 01:45:02;;;;;;;41.13;20.10;;;1.50;99.90;;;;;;5028354;28;20029;-62
2023/01/28 01:47:45;;;;;;;39.55;18.27;;;1.50;99.90;;;;;;5028643;28;20060;-62
2023/01/28 01:50:28;;;;;;;43.40;19.48;;;1.60;99.90;;;;;;5028185;28;20523;-64
2023/01/28 01:52:59;;;;;;;36.15;17.70;;;1.60;99.90;;;;;;5028381;28;20040;-63
2023/01/28 01:55:29;;;;;;;36.78;18.95;;;1.60;99.90;;;;;;5017857;28;20022;-63
2023/01/28 01:57:57;;;;;;;38.88;18.65;;;1.50;99.90;;;;;;4991185;28;20022;-63
2023/01/28 02:00:22;;;;;;;40.70;18.35;;;1.50;99.90;;;;;;5012035;28;20546;-63
2023/01/28 02:02:51;;;;;;;37.22;17.98;;;1.50;99.90;;;;;;5026734;28;20037;-63
2023/01/28 02:05:19;;;;;;;33.78;18.48;;;1.50;99.90;;;;;;5027752;28;20512;-63
2023/01/28 02:07:47;;;;;;;36.60;18.98;;;1.50;99.90;;;;;;5027910;28;20033;-62
2023/01/28 02:10:13;;;;;;;37.55;19.02;;;1.50;99.90;;;;;;5027681;28;20025;-63
2023/01/28 02:12:44;;;;;;;43.00;19.73;;;1.60;99.90;;;;;;5027673;28;20036;-63
2023/01/28 02:15:16;;;;;;;38.40;18.88;;;1.60;99.90;;;;;;5027972;28;20493;-62
2023/01/28 02:17:42;;;;;;;37.13;18.02;;;1.50;99.90;;;;;;5027859;28;20029;-62
2023/01/28 02:20:17;;;;;;;40.35;19.35;;;1.50;99.90;;;;;;5025992;28;20032;-62
2023/01/28 02:22:55;;;;;;;40.10;18.63;;;1.50;99.90;;;;;;5027432;28;20101;-62
2023/01/28 02:25:57;;;;;;;40.53;19.33;;;1.50;99.90;;;;;;5027306;28;20613;-63
2023/01/28 02:28:23;;;;;;;35.25;19.45;;;1.50;99.90;;;;;;5027818;28;20501;-63
2023/01/28 02:31:08;;;;;;;35.72;18.55;;;1.50;99.90;;;;;;5027835;28;20045;-62
2023/01/28 02:33:59;;;;;;;33.33;18.00;;;1.50;99.90;;;;;;5027766;28;20549;-61
2023/01/28 02:36:39;;;;;;;38.53;19.33;;;1.50;99.90;;;;;;5027914;28;20076;-62
2023/01/28 02:39:14;;;;;;;33.95;18.90;;;1.50;99.90;;;;;;5027272;28;20068;-62
2023/01/28 02:42:07;;;;;;;37.65;20.13;;;1.40;99.90;;;;;;5027031;28;20412;-63
2023/01/28 02:44:33;;;;;;;36.53;18.42;;;1.40;99.90;;;;;;5019113;28;20171;-62
2023/01/28 02:49:45;;;;;;;39.85;20.92;;;1.40;99.90;;;;;;5025873;28;20431;-63
2023/01/28 02:55:33;;;;;;;39.75;18.75;;;1.40;99.90;;;;;;5025369;28;20045;-64
2023/01/28 02:58:06;;;;;;;38.80;19.65;;;1.40;99.90;;;;;;5027211;28;20032;-64
2023/01/28 03:00:36;;;;;;;37.40;18.95;;;1.40;99.90;;;;;;5027491;28;20080;-62
2023/01/28 03:03:20;;;;;;;35.83;18.83;;;1.40;99.90;;;;;;5027607;28;20025;-63
2023/01/28 03:06:02;;;;;;;33.47;18.65;;;1.30;99.90;;;;;;5027134;28;20038;-63
2023/01/28 03:37:16;;;;;;;32.78;17.83;;;1.40;99.90;;;;;;5030667;28;20044;-62
2023/01/28 03:39:42;;;;;;;38.72;18.02;;;1.40;99.90;;;;;;5030528;28;20033;-63
2023/01/28 03:42:13;;;;;;;35.25;18.90;;;1.40;99.90;;;;;;5030643;28;20541;-62
2023/01/28 03:44:51;;;;;;;34.25;19.42;;;1.40;99.90;;;;;;5030753;28;20021;-63
2023/01/28 03:47:19;;;;;;;39.88;18.65;;;1.40;99.90;;;;;;5029222;28;20436;-63
2023/01/28 03:49:49;;;;;;;34.72;18.30;;;1.30;99.90;;;;;;5027058;28;20087;-62
2023/01/28 03:52:20;;;;;;;36.67;19.45;;;1.40;99.90;;;;;;5030258;28;20501;-62
2023/01/28 03:54:49;;;;;;;36.63;17.90;;;1.30;99.90;;;;;;5012440;28;20056;-63
2023/01/28 03:57:16;;;;;;;36.28;18.70;;;1.30;99.90;;;;;;5030186;28;20158;-64
2023/01/28 03:59:41;;;;;;;39.72;19.38;;;1.30;99.90;;;;;;5030756;28;20048;-64
2023/01/28 04:02:09;;;;;;;33.57;18.50;;;1.30;99.90;;;;;;5029218;28;20025;-63
2023/01/28 04:04:39;;;;;;;36.95;19.27;;;1.30;99.90;;;;;;5029238;28;20268;-64
2023/01/28 04:07:07;;;;;;;34.17;18.48;;;1.30;99.90;;;;;;5030653;28;20049;-63
2023/01/28 04:09:34;;;;;;;33.80;18.33;;;1.40;99.90;;;;;;5030597;28;20021;-63
2023/01/28 04:12:00;;;;;;;35.58;19.20;;;1.30;99.90;;;;;;5029809;28;20056;-63
2023/01/28 04:14:26;;;;;;;36.33;18.27;;;1.20;99.90;;;;;;5029997;28;20172;-63
2023/01/28 04:16:53;;;;;;;36.20;18.17;;;1.30;99.90;;;;;;5030292;28;20033;-64
2023/01/28 04:19:19;;;;;;;37.05;18.90;;;1.30;99.90;;;;;;5025848;28;20030;-63
2023/01/28 04:21:46;;;;;;;36.15;19.65;;;1.30;99.90;;;;;;5010015;28;20640;-62
2023/01/28 04:24:12;;;;;;;33.92;19.58;;;1.40;99.90;;;;;;5010161;28;20065;-63
2023/01/28 04:26:37;;;;;;;32.88;17.55;;;1.40;99.90;;;;;;5010050;28;20066;-63
2023/01/28 04:29:03;;;;;;;33.53;18.58;;;1.30;99.90;;;;;;5010221;28;20071;-63
2023/01/28 04:31:29;;;;;;;37.45;19.00;;;1.40;99.90;;;;;;5009774;28;20033;-63
2023/01/28 04:33:55;;;;;;;34.60;18.80;;;1.30;99.90;;;;;;5009919;28;20168;-63
2023/01/28 04:36:20;;;;;;;37.55;18.90;;;1.30;99.90;;;;;;5008853;28;20474;-62
2023/01/28 04:38:46;;;;;;;32.23;18.07;;;1.30;99.90;;;;;;5009610;28;20034;-63
2023/01/28 04:41:11;;;;;;;36.50;19.07;;;1.30;99.90;;;;;;5009680;28;20835;-62
2023/01/28 04:43:37;;;;;;;35.07;18.57;;;1.20;99.90;;;;;;5009858;28;20637;-64
2023/01/28 04:46:03;;;;;;;34.07;18.10;;;1.20;99.90;;;;;;5009822;28;20478;-62
2023/01/28 04:48:30;;;;;;;34.38;18.15;;;1.20;99.90;;;;;;5015896;28;20116;-62
2023/01/28 04:50:56;;;;;;;38.97;20.50;;;1.20;99.90;;;;;;5016848;28;20136;-62
2023/01/28 04:53:22;;;;;;;33.97;17.70;;;1.20;99.90;;;;;;5022522;28;20033;-62
2023/01/28 04:55:48;;;;;;;36.60;19.20;;;1.30;99.90;;;;;;5017316;28;20033;-63
2023/01/28 04:58:14;;;;;;;34.45;17.80;;;1.30;99.90;;;;;;5012983;28;20478;-64
2023/01/28 05:00:39;;;;;;;37.67;17.87;;;1.30;99.90;;;;;;5017930;28;20137;-64
2023/01/28 05:03:05;;;;;;;33.40;19.45;;;1.30;99.90;;;;;;5015546;28;20108;-63
2023/01/28 05:05:31;;;;;;;34.95;18.33;;;1.20;99.90;;;;;;5016860;28;20521;-64
2023/01/28 05:07:57;;;;;;;30.02;17.05;;;1.20;99.90;;;;;;5013767;28;20063;-62
2023/01/28 05:10:25;;;;;;;37.55;19.17;;;1.20;99.90;;;;;;5021544;28;21569;-64
2023/01/28 05:12:51;;;;;;;35.03;18.75;;;1.10;99.90;;;;;;5022177;28;20564;-63
2023/01/28 05:15:18;;;;;;;35.13;19.55;;;1.10;99.90;;;;;;5019091;28;20112;-64
2023/01/28 05:17:44;;;;;;;34.72;18.45;;;1.10;99.90;;;;;;5021929;28;20649;-64
2023/01/28 05:20:11;;;;;;;32.22;18.60;;;1.00;99.90;;;;;;5023749;28;20033;-64
2023/01/28 05:22:38;;;;;;;35.67;18.67;;;1.10;99.90;;;;;;5016747;28;20025;-63
2023/01/28 05:25:04;;;;;;;38.15;19.92;;;1.10;99.90;;;;;;5014339;28;20037;-64
2023/01/28 05:27:31;;;;;;;33.20;18.25;;;1.10;99.90;;;;;;5016959;28;20045;-62
2023/01/28 05:29:57;;;;;;;31.40;18.10;;;1.00;99.90;;;;;;5017274;28;20497;-63
2023/01/28 05:32:23;;;;;;;33.08;17.92;;;1.00;99.90;;;;;;5015036;28;20056;-63
2023/01/28 05:34:49;;;;;;;35.65;19.83;;;0.90;99.90;;;;;;5019628;28;20069;-62
2023/01/28 05:37:14;;;;;;;37.57;19.63;;;0.90;99.90;;;;;;5015436;28;20497;-64
2023/01/28 05:39:40;;;;;;;37.53;19.00;;;0.90;99.90;;;;;;5022558;28;20083;-62
2023/01/28 05:42:06;;;;;;;34.03;18.10;;;0.90;99.90;;;;;;5018435;28;20791;-63
2023/01/28 05:44:31;;;;;;;36.87;19.90;;;0.90;99.90;;;;;;5020392;28;20128;-62
2023/01/28 05:46:57;;;;;;;39.60;20.80;;;0.80;99.90;;;;;;5022629;28;20332;-62
2023/01/28 05:49:22;;;;;;;35.33;19.33;;;0.80;99.90;;;;;;5019535;28;20532;-63
2023/01/28 05:51:48;;;;;;;41.73;20.40;;;0.80;99.90;;;;;;5022249;28;20033;-62
2023/01/28 05:54:14;;;;;;;37.33;19.70;;;0.80;99.90;;;;;;5018226;28;20624;-62
2023/01/28 05:56:39;;;;;;;38.08;18.75;;;0.80;99.90;;;;;;5019871;28;20420;-62
2023/01/28 05:59:05;;;;;;;36.38;19.60;;;0.80;99.90;;;;;;5018424;28;20029;-63
2023/01/28 06:01:31;;;;;;;36.25;18.83;;;0.80;99.90;;;;;;5019122;28;20029;-63
2023/01/28 06:03:58;;;;;;;36.70;19.70;;;0.80;99.90;;;;;;5017213;28;20892;-64
2023/01/28 06:06:23;;;;;;;36.83;20.00;;;0.80;99.90;;;;;;5018852;28;20386;-64
2023/01/28 06:08:49;;;;;;;32.58;19.13;;;0.70;99.90;;;;;;5009724;28;20060;-62
2023/01/28 06:11:15;;;;;;;36.87;18.97;;;0.80;99.90;;;;;;5007295;28;20085;-62
2023/01/28 06:13:40;;;;;;;37.33;18.50;;;0.80;99.90;;;;;;5006442;28;20308;-63
2023/01/28 06:16:07;;;;;;;33.42;18.75;;;0.70;99.90;;;;;;5017761;28;20045;-62
2023/01/28 06:18:33;;;;;;;33.75;18.52;;;0.70;99.90;;;;;;5008978;28;20034;-63
2023/01/28 06:20:59;;;;;;;37.70;19.27;;;0.60;99.90;;;;;;5022316;28;20594;-64
2023/01/28 06:23:25;;;;;;;36.42;18.75;;;0.70;99.90;;;;;;5020611;28;20113;-63
2023/01/28 06:25:56;;;;;;;36.63;20.08;;;0.70;99.90;;;;;;5016470;28;20144;-62
2023/01/28 06:28:25;;;;;;;37.20;19.40;;;0.70;99.90;;;;;;5016846;28;20507;-64
2023/01/28 06:30:52;;;;;;;35.47;18.83;;;0.60;99.90;;;;;;5022704;28;20432;-64
2023/01/28 06:33:19;;;;;;;32.83;18.35;;;0.60;99.90;;;;;;5016937;28;20040;-63
2023/01/28 06:35:45;;;;;;;32.58;18.00;;;0.70;99.90;;;;;;5016081;28;20034;-62
2023/01/28 06:38:11;;;;;;;35.78;19.05;;;0.70;99.90;;;;;;5013255;28;20097;-63
2023/01/28 06:40:37;;;;;;;35.22;19.75;;;0.60;99.90;;;;;;5016029;28;20038;-62
2023/01/28 06:43:03;;;;;;;31.98;17.75;;;0.70;99.90;;;;;;5016060;28;20030;-62
2023/01/28 06:45:29;;;;;;;32.03;18.40;;;0.60;99.90;;;;;;5014667;28;20042;-63
2023/01/28 06:47:55;;;;;;;41.08;19.45;;;0.70;99.90;;;;;;5012170;28;20121;-64
2023/01/28 06:50:20;;;;;;;38.80;19.43;;;0.60;99.90;;;;;;5018831;28;20569;-62
2023/01/28 06:52:46;;;;;;;34.85;18.80;;;0.60;99.90;;;;;;5020281;28;20046;-62
2023/01/28 06:55:12;;;;;;;40.50;19.27;;;0.60;99.90;;;;;;5015224;28;20034;-61
2023/01/28 06:57:39;;;;;;;36.00;19.60;;;0.60;99.90;;;;;;5017430;28;20104;-62
2023/01/28 07:00:07;;;;;;;35.25;18.80;;;0.60;99.90;;;;;;5016679;28;20056;-62
2023/01/28 07:02:33;;;;;;;35.10;18.42;;;0.60;99.90;;;;;;5024404;28;20079;-62
2023/01/28 07:04:58;;;;;;;33.65;18.33;;;0.50;99.90;;;;;;5014287;28;20418;-62
2023/01/28 07:07:24;;;;;;;36.90;19.07;;;0.50;99.90;;;;;;5021820;28;20045;-62
2023/01/28 07:09:49;;;;;;;41.90;19.17;;;0.50;99.90;;;;;;5021257;28;20143;-62
2023/01/28 07:12:15;;;;;;;32.37;17.07;;;0.50;99.90;;;;;;5019351;28;20417;-62
2023/01/28 07:14:41;;;;;;;35.85;18.83;;;0.50;99.90;;;;;;5028177;28;20061;-62
2023/01/28 07:17:07;;;;;;;38.92;19.73;;;0.50;99.90;;;;;;5011742;28;20076;-63
2023/01/28 07:19:32;;;;;;;39.50;19.48;;;0.50;99.90;;;;;;5021447;28;20061;-62
2023/01/28 07:21:59;;;;;;;34.60;19.27;;;0.50;99.90;;;;;;5017103;28;20037;-61
2023/01/28 07:24:25;;;;;;;35.72;19.58;;;0.60;99.90;;;;;;5023549;28;20279;-62
2023/01/28 07:26:51;;;;;;;36.25;19.55;;;0.50;99.90;;;;;;5019883;28;20528;-62
2023/01/28 07:29:17;;;;;;;33.40;18.80;;;0.60;99.90;;;;;;5018632;28;20026;-62
2023/01/28 07:31:42;;;;;;;37.58;18.30;;;0.60;99.90;;;;;;5019044;28;20052;-63
2023/01/28 07:34:08;;;;;;;37.60;19.33;;;0.60;99.90;;;;;;5019699;28;20246;-62
2023/01/28 07:36:34;;;;;;;32.10;18.70;;;0.60;99.90;;;;;;5020681;28;20806;-63
2023/01/28 07:39:00;;;;;;;33.80;17.63;;;0.60;99.90;;;;;;5017134;28;20117;-63
2023/01/28 07:41:26;;;;;;;38.37;19.17;;;0.70;99.90;;;;;;5022685;28;20292;-62
2023/01/28 07:43:52;;;;;;;32.88;17.70;;;0.70;99.90;;;;;;5020764;28;20467;-62
2023/01/28 07:46:18;;;;;;;33.90;18.93;;;0.70;99.90;;;;;;5026241;28;20033;-62
2023/01/28 07:48:44;;;;;;;32.70;17.73;;;0.60;99.90;;;;;;5021443;28;20296;-62
2023/01/28 07:51:10;;;;;;;33.03;18.70;;;0.60;99.90;;;;;;5022125;28;20264;-64
2023/01/28 07:53:36;;;;;;;35.45;18.17;;;0.70;99.90;;;;;;5020221;28;20053;-62
2023/01/28 07:56:03;;;;;;;37.47;18.33;;;0.70;99.90;;;;;;4990389;28;20055;-64
2023/01/28 07:58:29;;;;;;;30.02;16.63;;;0.70;99.90;;;;;;5023764;28;20507;-62
2023/01/28 08:00:58;;;;;;;34.42;18.83;;;0.70;99.90;;;;;;5015263;28;20065;-64
2023/01/28 08:03:24;;;;;;;36.75;18.63;;;0.70;99.90;;;;;;5022673;28;20060;-61
2023/01/28 08:05:52;;;;;;;36.67;18.58;;;0.80;99.90;;;;;;5016162;28;20030;-62
2023/01/28 08:08:18;;;;;;;36.80;17.48;;;0.80;99.90;;;;;;5018615;28;20044;-62
2023/01/28 08:10:44;;;;;;;33.72;17.10;;;0.80;99.90;;;;;;5022521;28;20088;-64
2023/01/28 08:13:11;;;;;;;38.90;18.98;;;0.70;99.90;;;;;;5006687;28;20040;-62
2023/01/28 08:15:37;;;;;;;35.28;18.13;;;0.80;99.90;;;;;;5015110;28;20037;-64
2023/01/28 08:18:03;;;;;;;;;;;0.80;99.90;;;;;;5024255;28;20121;-61
2023/01/28 08:20:29;;;;;;;33.47;17.10;;;0.80;99.90;;;;;;5020925;28;19913;-62
2023/01/28 08:23:18;;;;;;;33.33;17.73;;;0.80;99.90;;;;;;5016995;28;20026;-61
2023/01/28 08:25:45;;;;;;;32.20;17.10;;;0.80;99.90;;;;;;5012600;28;20494;-61
2023/01/28 08:28:12;;;;;;;33.47;18.35;;;0.90;99.90;;;;;;5026629;28;20152;-62
2023/01/28 08:30:38;;;;;;;33.88;17.30;;;0.90;99.90;;;;;;5026607;28;20040;-62
2023/01/28 08:33:09;;;;;;;38.60;18.45;;;0.90;99.90;;;;;;5018066;28;20041;-62
2023/01/28 08:35:35;;;;;;;37.08;19.13;;;0.90;99.90;;;;;;5022755;28;20064;-63
2023/01/28 08:38:02;;;;;;;34.88;17.52;;;0.90;99.90;;;;;;5021890;28;20037;-62
2023/01/28 08:40:28;;;;;;;32.88;17.38;;;0.90;99.90;;;;;;5026168;28;20030;-62
2023/01/28 08:42:55;;;;;;;38.20;19.10;;;0.90;99.90;;;;;;5022440;28;20049;-64
2023/01/28 08:45:24;;;;;;;38.42;17.05;;;0.90;99.90;;;;;;5017949;28;20034;-64
2023/01/28 08:47:50;;;;;;;37.72;18.23;;;1.00;99.90;;;;;;5015564;28;20080;-62
2023/01/28 08:50:16;;;;;;;;;;;1.00;99.90;;;;;;5018926;28;20022;-62
2023/01/28 08:52:43;;;;;;;36.40;17.63;;;1.00;99.90;;;;;;5019424;28;19919;-62
2023/01/28 08:55:09;;;;;;;;;;;1.00;99.90;;;;;;5018029;28;20099;-63
2023/01/28 08:57:35;;;;;;;37.90;18.92;;;1.10;99.90;;;;;;5017490;28;19921;-63
2023/01/28 09:00:00;;;;;;;38.60;19.13;;;1.00;99.90;;;;;;5023381;28;20026;-62
2023/01/28 09:02:26;;;;;;;42.10;17.83;;;1.10;99.90;;;;;;5026258;28;20040;-63
2023/01/28 09:04:51;;;;;;;37.80;18.23;;;1.10;99.90;;;;;;5022660;28;20029;-63
2023/01/28 09:07:17;;;;;;;36.37;19.37;;;1.20;99.90;;;;;;5022467;28;20140;-62
2023/01/28 09:09:42;;;;;;;31.90;17.20;;;1.20;99.90;;;;;;5021759;28;20028;-63
2023/01/28 09:12:09;;;;;;;35.90;18.45;;;1.20;99.90;;;;;;5021405;28;20144;-63
2023/01/28 09:14:35;;;;;;;34.38;18.17;;;1.20;99.90;;;;;;5019033;28;20978;-65
2023/01/28 09:17:03;;;;;;;36.13;18.00;;;1.20;99.90;;;;;;5022317;28;20087;-63
2023/01/28 09:19:28;;;;;;;37.47;17.70;;;1.20;99.90;;;;;;5017234;28;20025;-63
2023/01/28 09:21:54;;;;;;;35.80;18.40;;;1.30;99.90;;;;;;5012873;28;20025;-63
2023/01/28 09:24:19;;;;;;;32.43;17.97;;;1.30;99.90;;;;;;5020296;28;20061;-63
2023/01/28 09:26:48;;;;;;;35.05;17.80;;;1.30;99.90;;;;;;5019050;28;20045;-63
2023/01/28 09:29:13;;;;;;;36.88;18.70;;;1.30;99.90;;;;;;5023795;28;20044;-62
2023/01/28 09:31:39;;;;;;;32.80;17.47;;;1.30;99.90;;;;;;5021749;28;20034;-63
2023/01/28 09:34:05;;;;;;;33.88;17.35;;;1.20;99.90;;;;;;5017796;28;20325;-62
2023/01/28 09:36:31;;;;;;;34.30;18.25;;;1.30;99.90;;;;;;5014346;28;20038;-63
2023/01/28 09:38:57;;;;;;;33.22;17.77;;;1.30;99.90;;;;;;5021219;28;20756;-65
2023/01/28 09:41:40;;;;;;;32.45;17.08;;;1.30;99.90;;;;;;5025185;28;20037;-63
2023/01/28 09:44:34;;;;;;;28.52;16.08;;;1.30;99.90;;;;;;5017908;28;20040;-65
2023/01/28 09:47:11;;;;;;;31.27;17.00;;;1.40;99.90;;;;;;5016160;28;20754;-65
2023/01/28 09:49:42;;;;;;;29.45;16.98;;;1.40;99.90;;;;;;5016071;28;20034;-64
2023/01/28 09:52:14;;;;;;;34.30;17.00;;;1.40;99.90;;;;;;5018523;28;20030;-65
2023/01/28 09:54:51;;;;;;;33.22;17.52;;;1.40;99.90;;;;;;5019427;28;20083;-64
2023/01/28 09:57:25;;;;;;;29.98;16.48;;;1.50;99.90;;;;;;5019176;28;20762;-64
2023/01/28 09:59:51;;;;;;;34.53;17.65;;;1.50;99.90;;;;;;5022985;28;20095;-65
2023/01/28 10:02:41;;;;;;;35.33;17.97;;;1.40;99.90;;;;;;5015661;28;20026;-65
2023/01/28 10:05:15;;;;;;;28.45;16.30;;;1.50;99.90;;;;;;5014331;28;20029;-65
2023/01/28 10:07:55;;;;;;;36.03;18.55;;;1.50;99.90;;;;;;5015175;28;20786;-65
2023/01/28 10:10:47;;;;;;;36.50;18.00;;;1.50;99.90;;;;;;5015297;28;20029;-64
2023/01/28 10:13:21;;;;;;;35.03;18.92;;;1.50;99.90;;;;;;5010622;28;20131;-65
2023/01/28 10:16:10;;;;;;;34.33;17.20;;;1.50;99.90;;;;;;5015418;28;20685;-65
2023/01/28 10:18:41;;;;;;;34.85;18.42;;;1.60;99.90;;;;;;5006101;28;20034;-65
2023/01/28 10:21:25;;;;;;;38.78;18.67;;;1.60;99.90;;;;;;5013378;28;20048;-64
2023/01/28 10:23:58;;;;;;;34.20;18.33;;;1.70;99.90;;;;;;5017510;28;20029;-65
2023/01/28 10:26:28;;;;;;;33.85;17.77;;;1.70;99.90;;;;;;5016595;28;20037;-64
2023/01/28 10:28:58;;;;;;;36.25;18.77;;;1.70;99.90;;;;;;5007954;28;20033;-65
2023/01/28 10:31:31;;;;;;;36.53;17.90;;;1.70;99.90;;;;;;5018346;28;20529;-65
2023/01/28 10:33:57;;;;;;;35.78;17.10;;;1.80;99.90;;;;;;5018419;28;20098;-64
2023/01/28 10:36:22;;;;;;;29.25;16.42;;;1.70;99.90;;;;;;5016597;28;20420;-65
2023/01/28 10:38:48;;;;;;;34.15;17.67;;;1.70;99.90;;;;;;5016469;28;20037;-64
2023/01/28 10:41:19;;;;;;;31.73;17.10;;;1.60;99.90;;;;;;5022957;28;20033;-63
2023/01/28 10:43:47;;;;;;;34.72;17.52;;;1.60;99.90;;;;;;5025928;28;20072;-65
2023/01/28 10:46:16;;;;;;;33.92;18.25;;;1.60;99.90;;;;;;5008289;28;20040;-64
2023/01/28 10:49:02;;;;;;;35.67;17.42;;;1.70;99.90;;;;;;5025971;28;20045;-64
2023/01/28 10:51:36;;;;;;;34.35;17.88;;;1.80;99.90;;;;;;5024629;28;20025;-63
2023/01/28 10:54:15;;;;;;;32.33;17.50;;;1.80;99.90;;;;;;5026151;28;20084;-64
2023/01/28 10:56:42;;;;;;;33.25;17.15;;;1.80;99.90;;;;;;5026281;28;20136;-64
2023/01/28 10:59:41;;;;;;;35.75;18.85;;;1.80;99.90;;;;;;5026561;28;20530;-64
2023/01/28 11:02:35;;;;;;;31.88;16.50;;;1.80;99.90;;;;;;4990882;28;20037;-64
2023/01/28 11:05:35;;;;;;;30.40;17.08;;;1.90;99.90;;;;;;5022891;28;20484;-65
2023/01/28 11:08:13;;;;;;;35.58;18.70;;;1.90;99.90;;;;;;4963729;28;20121;-64
2023/01/28 11:10:39;;;;;;;37.75;18.80;;;1.90;99.90;;;;;;5025687;28;20110;-63
2023/01/28 11:13:13;;;;;;;37.75;16.40;;;1.90;99.90;;;;;;5025481;28;20033;-65
2023/01/28 11:15:52;;;;;;;41.47;18.20;;;2.00;99.90;;;;;;5017782;28;20041;-63
2023/01/28 11:18:27;;;;;;;36.88;18.70;;;2.00;99.90;;;;;;5016751;28;20030;-64
2023/01/28 11:21:01;;;;;;;34.65;17.65;;;2.00;99.90;;;;;;5025894;28;20025;-64
2023/01/28 11:23:30;;;;;;;34.80;19.08;;;2.00;99.90;;;;;;5008002;28;20031;-63
2023/01/28 11:26:19;;;;;;;37.30;19.05;;;2.10;99.90;;;;;;5025407;28;20037;-64
2023/01/28 11:28:45;;;;;;;35.63;17.55;;;2.10;99.90;;;;;;5025775;28;20034;-64
2023/01/28 11:31:13;;;;;;;;;;;2.20;99.90;;;;;;5026075;28;20143;-64
2023/01/28 11:33:45;;;;;;;35.13;16.65;;;2.30;99.90;;;;;;5014602;28;19967;-63
2023/01/28 11:36:16;;;;;;;32.63;18.00;;;2.30;99.90;;;;;;5024448;28;20044;-64
2023/01/28 11:38:56;;;;;;;31.98;17.40;;;2.30;99.90;;;;;;5025860;28;20029;-63
2023/01/28 11:41:37;;;;;;;33.35;17.05;;;2.30;99.90;;;;;;5025926;28;20120;-64
2023/01/28 11:44:29;;;;;;;32.75;16.73;;;2.40;99.90;;;;;;5024460;28;20013;-63
2023/01/28 11:47:23;;;;;;;31.05;16.67;;;2.50;99.90;;;;;;4999070;28;20132;-64
2023/01/28 11:50:16;;;;;;;30.95;17.00;;;2.50;99.90;;;;;;5024102;28;20028;-64
2023/01/28 11:52:56;;;;;;;29.10;16.55;;;2.40;99.90;;;;;;5026064;28;20059;-63
2023/01/28 11:55:37;;;;;;;27.27;15.55;;;2.40;99.90;;;;;;5024128;28;20033;-65
2023/01/28 11:58:24;;;;;;;33.97;18.45;;;2.40;99.90;;;;;;5024935;28;20481;-63
2023/01/28 12:01:08;;;;;;;40.75;19.85;;;2.50;99.90;;;;;;5023506;28;20021;-66
2023/01/28 12:03:55;;;;;;;34.50;16.40;;;2.60;99.90;;;;;;5028304;28;20095;-66
2023/01/28 12:06:25;;;;;;;31.10;17.52;;;2.60;99.90;;;;;;5023784;28;20033;-65
2023/01/28 12:09:09;;;;;;;31.90;15.82;;;2.60;99.90;;;;;;5028728;28;20033;-66
2023/01/28 12:12:11;;;;;;;31.10;15.93;;;2.60;99.90;;;;;;5010930;28;20064;-65
2023/01/28 12:15:01;;;;;;;30.27;16.88;;;2.60;99.90;;;;;;5024724;28;20026;-66
2023/01/28 12:17:48;;;;;;;33.60;16.67;;;2.70;99.90;;;;;;5028626;28;20433;-64
2023/01/28 12:20:45;;;;;;;31.83;16.23;;;2.70;99.90;;;;;;5026264;28;20025;-66
2023/01/28 12:23:13;;;;;;;31.08;16.83;;;2.60;99.90;;;;;;5028922;28;20037;-66
2023/01/28 12:25:59;;;;;;;34.05;17.90;;;2.70;99.90;;;;;;5028757;28;20025;-66
2023/01/28 12:28:57;;;;;;;34.55;16.65;;;2.70;99.90;;;;;;5028321;28;20048;-64
2023/01/28 12:31:43;;;;;;;32.70;16.50;;;2.70;99.90;;;;;;4998256;28;20136;-64
2023/01/28 12:34:30;;;;;;;35.83;18.48;;;2.70;99.90;;;;;;5028239;28;20031;-64
2023/01/28 12:37:19;;;;;;;32.70;18.30;;;2.70;99.90;;;;;;5027528;28;20032;-65
2023/01/28 12:40:22;;;;;;;35.17;16.13;;;2.70;99.90;;;;;;5023568;28;20041;-66
2023/01/28 12:43:01;;;;;;;31.02;15.77;;;2.80;99.90;;;;;;5025009;28;20037;-63
2023/01/28 12:45:39;;;;;;;31.67;16.25;;;2.80;99.90;;;;;;5024603;28;20034;-63
2023/01/28 12:48:11;;;;;;;29.05;16.52;;;2.80;99.90;;;;;;5024092;28;20072;-65
2023/01/28 12:50:52;;;;;;;30.25;15.35;;;2.80;99.90;;;;;;5008554;28;20520;-65
2023/01/28 12:53:22;;;;;;;31.25;16.15;;;2.80;99.90;;;;;;5024204;28;20116;-63
2023/01/28 12:56:02;;;;;;;28.13;15.77;;;2.80;99.90;;;;;;5027763;28;20087;-64
2023/01/28 12:58:48;;;;;;;30.40;15.85;;;2.80;99.90;;;;;;5027166;28;20041;-63
2023/01/28 13:01:22;;;;;;;26.40;15.13;;;2.80;99.90;;;;;;5027520;28;20025;-63
2023/01/28 13:04:00;;;;;;;29.70;15.50;;;2.80;99.90;;;;;;5023250;28;20068;-64
2023/01/28 13:06:38;;;;;;;27.67;14.95;;;2.80;99.90;;;;;;5027181;28;20049;-63
2023/01/28 13:09:18;;;;;;;27.67;14.82;;;2.80;99.90;;;;;;5021269;28;20032;-64
2023/01/28 13:11:47;;;;;;;28.42;15.70;;;2.80;99.90;;;;;;5024593;28;20021;-64
2023/01/28 13:14:13;;;;;;;25.83;14.57;;;2.90;99.90;;;;;;5023096;28;20087;-63
2023/01/28 13:16:39;;;;;;;31.58;15.80;;;2.90;99.90;;;;;;5022912;28;20025;-62
2023/01/28 13:19:19;;;;;;;27.52;15.75;;;2.90;99.90;;;;;;5022755;28;20828;-64
2023/01/28 13:21:46;;;;;;;28.02;14.05;;;2.90;99.90;;;;;;5018386;28;20100;-64
2023/01/28 13:24:12;;;;;;;28.25;14.55;;;2.90;99.90;;;;;;5020544;28;20032;-63
2023/01/28 13:26:45;;;;;;;26.67;14.63;;;2.90;99.90;;;;;;5024324;28;20022;-63
2023/01/28 13:29:13;;;;;;;25.55;14.60;;;2.90;99.90;;;;;;5022073;28;20044;-64
2023/01/28 13:31:42;;;;;;;26.70;15.02;;;2.90;99.90;;;;;;5025633;28;20029;-63
2023/01/28 13:34:26;;;;;;;24.00;14.38;;;2.90;99.90;;;;;;5026504;28;20064;-63